sensor_id;sensor_type;location;lat;lon;timestamp;temperature;humidity
16158;DHT22;8184;60.256;18.694;2023-03-02T00:01:40;3.60;99.90
16158;DHT22;8184;60.256;18.694;2023-03-02T00:04:11;3.60;99.90
16158;DHT22;8184;60.256;18.694;2023-03-02T00:06:41;3.70;99.90
16158;DHT22;8184;60.256;18.694;2023-03-02T00:09:09;3.60;99.90
16158;DHT22;8184;60.256;18.694;2023-03-02T00:11:38;3.60;99.90
16158;DHT22;8184;60.256;18.694;2023-03-02T00:14:06;3.60;99.90
16158;DHT22;8184;60.256;18.694;2023-03-02T00:16:34;3.60;99.90
16158;DHT22;8184;60.256;18.694;2023-03-02T00:19:03;3.60;99.90
16158;DHT22;8184;60.256;18.694;2023-03-02T00:21:32;3.50;99.90
16158;DHT22;8184;60.256;18.694;2023-03-02T00:24:01;3.50;99.90
16158;DHT22;8184;60.256;18.694;2023-03-02T00:26:31;3.50;99.90
16158;DHT22;8184;60.256;18.694;2023-03-02T00:29:00;3.50;99.90
16158;DHT22;8184;60.256;18.694;2023-03-02T00:31:28;3.60;99.90
16158;DHT22;8184;60.256;18.694;2023-03-02T00:33:56;3.60;99.90
16158;DHT22;8184;60.256;18.694;2023-03-02T00:36:24;3.60;99.90
16158;DHT22;8184;60.256;18.694;2023-03-02T00:38:54;3.50;99.90
16158;DHT22;8184;60.256;18.694;2023-03-02T00:41:23;3.50;99.90
16158;DHT22;8184;60.256;18.694;2023-03-02T00:43:51;3.40;99.90
16158;DHT22;8184;60.256;18.694;2023-03-02T00:46:20;3.40;99.90
16158;DHT22;8184;60.256;18.694;2023-03-02T00:48:49;3.40;99.90
16158;DHT22;8184;60.256;18.694;2023-03-02T00:51:18;3.40;99.90
16158;DHT22;8184;60.256;18.694;2023-03-02T00:53:47;3.40;99.90
16158;DHT22;8184;60.256;18.694;2023-03-02T00:56:16;3.40;99.90
16158;DHT22;8184;60.256;18.694;2023-03-02T00:58:45;3.40;99.90
16158;DHT22;8184;60.256;18.694;2023-03-02T01:01:13;3.50;99.90
16158;DHT22;8184;60.256;18.694;2023-03-02T01:03:44;3.40;99.90
16158;DHT22;8184;60.256;18.694;2023-03-02T01:06:13;3.40;99.90
16158;DHT22;8184;60.256;18.694;2023-03-02T01:08:41;3.40;99.90
16158;DHT22;8184;60.256;18.694;2023-03-02T01:11:13;3.40;99.90
16158;DHT22;8184;60.256;18.694;2023-03-02T01:13:43;3.30;99.90
16158;DHT22;8184;60.256;18.694;2023-03-02T01:16:11;3.30;99.90
16158;DHT22;8184;60.256;18.694;2023-03-02T01:18:41;3.30;99.90
16158;DHT22;8184;60.256;18.694;2023-03-02T01:21:11;3.30;99.90
16158;DHT22;8184;60.256;18.694;2023-03-02T01:23:39;3.30;99.90
16158;DHT22;8184;60.256;18.694;2023-03-02T01:26:11;3.30;99.90
16158;DHT22;8184;60.256;18.694;2023-03-02T01:28:39;3.10;99.90
16158;DHT22;8184;60.256;18.694;2023-03-02T01:31:08;3.20;99.90
16158;DHT22;8184;60.256;18.694;2023-03-02T01:33:37;3.20;99.90
16158;DHT22;8184;60.256;18.694;2023-03-02T01:36:07;3.20;99.90
16158;DHT22;8184;60.256;18.694;2023-03-02T01:38:35;3.20;99.90
16158;DHT22;8184;60.256;18.694;2023-03-02T01:41:06;3.20;99.90
16158;DHT22;8184;60.256;18.694;2023-03-02T01:43:35;3.20;99.90
16158;DHT22;8184;60.256;18.694;2023-03-02T01:46:05;3.10;99.90
16158;DHT22;8184;60.256;18.694;2023-03-02T01:48:38;3.10;99.90
16158;DHT22;8184;60.256;18.694;2023-03-02T01:51:09;3.20;99.90
16158;DHT22;8184;60.256;18.694;2023-03-02T01:53:41;3.10;99.90
16158;DHT22;8184;60.256;18.694;2023-03-02T01:56:12;3.30;99.90
16158;DHT22;8184;60.256;18.694;2023-03-02T01:58:41;3.20;99.90
16158;DHT22;8184;60.256;18.694;2023-03-02T02:01:10;3.20;99.90
16158;DHT22;8184;60.256;18.694;2023-03-02T02:03:44;3.20;99.90
16158;DHT22;8184;60.256;18.694;2023-03-02T02:06:16;3.20;99.90
16158;DHT22;8184;60.256;18.694;2023-03-02T02:08:48;3.20;99.90
16158;DHT22;8184;60.256;18.694;2023-03-02T02:11:20;3.20;99.90
16158;DHT22;8184;60.256;18.694;2023-03-02T02:13:48;3.30;99.90
16158;DHT22;8184;60.256;18.694;2023-03-02T02:16:17;3.30;99.90
16158;DHT22;8184;60.256;18.694;2023-03-02T02:18:46;3.30;99.90
16158;DHT22;8184;60.256;18.694;2023-03-02T02:21:14;3.20;99.90
16158;DHT22;8184;60.256;18.694;2023-03-02T02:23:44;3.20;99.90
16158;DHT22;8184;60.256;18.694;2023-03-02T02:26:26;3.20;99.90
16158;DHT22;8184;60.256;18.694;2023-03-02T02:28:57;3.20;99.90
16158;DHT22;8184;60.256;18.694;2023-03-02T02:31:29;3.20;99.90
16158;DHT22;8184;60.256;18.694;2023-03-02T02:34:02;3.10;99.90
16158;DHT22;8184;60.256;18.694;2023-03-02T02:36:36;3.10;99.90
16158;DHT22;8184;60.256;18.694;2023-03-02T02:39:06;3.00;99.90
16158;DHT22;8184;60.256;18.694;2023-03-02T02:41:37;3.20;99.90
16158;DHT22;8184;60.256;18.694;2023-03-02T02:44:08;3.10;99.90
16158;DHT22;8184;60.256;18.694;2023-03-02T02:46:36;3.00;99.90
16158;DHT22;8184;60.256;18.694;2023-03-02T02:49:05;2.90;99.90
16158;DHT22;8184;60.256;18.694;2023-03-02T02:51:33;2.80;99.90
16158;DHT22;8184;60.256;18.694;2023-03-02T02:54:02;2.80;99.90
16158;DHT22;8184;60.256;18.694;2023-03-02T02:56:31;2.70;99.90
16158;DHT22;8184;60.256;18.694;2023-03-02T02:59:03;2.80;99.90
16158;DHT22;8184;60.256;18.694;2023-03-02T03:01:33;2.70;99.90
16158;DHT22;8184;60.256;18.694;2023-03-02T03:04:02;2.70;99.90
16158;DHT22;8184;60.256;18.694;2023-03-02T03:06:32;2.70;99.90
16158;DHT22;8184;60.256;18.694;2023-03-02T03:09:05;2.80;99.90
16158;DHT22;8184;60.256;18.694;2023-03-02T03:11:35;2.70;99.90
16158;DHT22;8184;60.256;18.694;2023-03-02T03:14:07;2.70;99.90
16158;DHT22;8184;60.256;18.694;2023-03-02T03:16:37;2.70;99.90
16158;DHT22;8184;60.256;18.694;2023-03-02T03:19:09;2.60;99.90
16158;DHT22;8184;60.256;18.694;2023-03-02T03:21:38;2.60;99.90
16158;DHT22;8184;60.256;18.694;2023-03-02T03:24:09;2.60;99.90
16158;DHT22;8184;60.256;18.694;2023-03-02T03:26:37;2.50;99.90
16158;DHT22;8184;60.256;18.694;2023-03-02T03:29:08;2.50;99.90
16158;DHT22;8184;60.256;18.694;2023-03-02T03:31:36;2.40;99.90
16158;DHT22;8184;60.256;18.694;2023-03-02T03:34:05;2.40;99.90
16158;DHT22;8184;60.256;18.694;2023-03-02T03:36:34;2.30;99.90
16158;DHT22;8184;60.256;18.694;2023-03-02T03:39:03;2.30;99.90
16158;DHT22;8184;60.256;18.694;2023-03-02T03:41:31;2.20;99.90
16158;DHT22;8184;60.256;18.694;2023-03-02T03:44:00;2.20;99.90
16158;DHT22;8184;60.256;18.694;2023-03-02T03:46:30;2.20;99.90
16158;DHT22;8184;60.256;18.694;2023-03-02T03:48:59;2.20;99.90
16158;DHT22;8184;60.256;18.694;2023-03-02T03:51:28;2.10;99.90
16158;DHT22;8184;60.256;18.694;2023-03-02T03:54:01;2.10;99.90
16158;DHT22;8184;60.256;18.694;2023-03-02T03:56:32;2.00;99.90
16158;DHT22;8184;60.256;18.694;2023-03-02T03:59:02;2.00;99.90
16158;DHT22;8184;60.256;18.694;2023-03-02T04:01:35;2.10;99.90
16158;DHT22;8184;60.256;18.694;2023-03-02T04:04:05;2.10;99.90
16158;DHT22;8184;60.256;18.694;2023-03-02T04:06:34;2.00;99.90
16158;DHT22;8184;60.256;18.694;2023-03-02T04:09:02;2.00;99.90
16158;DHT22;8184;60.256;18.694;2023-03-02T04:11:31;2.10;99.90
16158;DHT22;8184;60.256;18.694;2023-03-02T04:14:00;2.10;99.90
16158;DHT22;8184;60.256;18.694;2023-03-02T04:16:28;2.10;99.90
16158;DHT22;8184;60.256;18.694;2023-03-02T04:18:59;2.00;99.90
16158;DHT22;8184;60.256;18.694;2023-03-02T04:21:27;2.00;99.90
16158;DHT22;8184;60.256;18.694;2023-03-02T04:23:56;1.90;99.90
16158;DHT22;8184;60.256;18.694;2023-03-02T04:26:24;1.90;99.90
16158;DHT22;8184;60.256;18.694;2023-03-02T04:28:57;1.90;99.90
16158;DHT22;8184;60.256;18.694;2023-03-02T04:31:26;1.90;99.90
16158;DHT22;8184;60.256;18.694;2023-03-02T04:33:54;1.90;99.90
16158;DHT22;8184;60.256;18.694;2023-03-02T04:36:24;1.80;99.90
16158;DHT22;8184;60.256;18.694;2023-03-02T04:38:52;1.90;99.90
16158;DHT22;8184;60.256;18.694;2023-03-02T04:41:21;1.80;99.90
16158;DHT22;8184;60.256;18.694;2023-03-02T04:43:49;1.80;99.90
16158;DHT22;8184;60.256;18.694;2023-03-02T04:46:21;1.80;99.90
16158;DHT22;8184;60.256;18.694;2023-03-02T04:48:49;1.80;99.90
16158;DHT22;8184;60.256;18.694;2023-03-02T04:51:18;1.90;99.90
16158;DHT22;8184;60.256;18.694;2023-03-02T04:53:51;1.90;99.90
16158;DHT22;8184;60.256;18.694;2023-03-02T04:56:20;1.90;99.90
16158;DHT22;8184;60.256;18.694;2023-03-02T04:58:51;1.80;99.90
16158;DHT22;8184;60.256;18.694;2023-03-02T05:01:20;1.80;99.90
16158;DHT22;8184;60.256;18.694;2023-03-02T05:03:48;1.70;99.90
16158;DHT22;8184;60.256;18.694;2023-03-02T05:06:16;1.70;99.90
16158;DHT22;8184;60.256;18.694;2023-03-02T05:08:44;1.60;99.90
16158;DHT22;8184;60.256;18.694;2023-03-02T05:11:14;1.60;99.90
16158;DHT22;8184;60.256;18.694;2023-03-02T05:13:48;1.50;99.90
16158;DHT22;8184;60.256;18.694;2023-03-02T05:16:16;1.50;99.90
16158;DHT22;8184;60.256;18.694;2023-03-02T05:18:45;1.50;99.90
16158;DHT22;8184;60.256;18.694;2023-03-02T05:21:14;1.50;99.90
16158;DHT22;8184;60.256;18.694;2023-03-02T05:23:43;1.40;99.90
16158;DHT22;8184;60.256;18.694;2023-03-02T05:26:11;1.50;99.90
16158;DHT22;8184;60.256;18.694;2023-03-02T05:28:41;1.50;99.90
16158;DHT22;8184;60.256;18.694;2023-03-02T05:31:10;1.50;99.90
16158;DHT22;8184;60.256;18.694;2023-03-02T05:33:41;1.40;99.90
16158;DHT22;8184;60.256;18.694;2023-03-02T05:36:09;1.50;99.90
16158;DHT22;8184;60.256;18.694;2023-03-02T05:38:40;1.50;99.90
16158;DHT22;8184;60.256;18.694;2023-03-02T05:41:08;1.50;99.90
16158;DHT22;8184;60.256;18.694;2023-03-02T05:43:39;1.50;99.90
16158;DHT22;8184;60.256;18.694;2023-03-02T05:46:09;1.60;99.90
16158;DHT22;8184;60.256;18.694;2023-03-02T05:48:37;1.60;99.90
16158;DHT22;8184;60.256;18.694;2023-03-02T05:51:07;1.60;99.90
16158;DHT22;8184;60.256;18.694;2023-03-02T05:53:35;1.60;99.90
16158;DHT22;8184;60.256;18.694;2023-03-02T05:56:05;1.60;99.90
16158;DHT22;8184;60.256;18.694;2023-03-02T05:58:33;1.60;99.90
16158;DHT22;8184;60.256;18.694;2023-03-02T06:01:06;1.60;99.90
16158;DHT22;8184;60.256;18.694;2023-03-02T06:03:42;1.60;99.90
16158;DHT22;8184;60.256;18.694;2023-03-02T06:06:10;1.60;99.90
16158;DHT22;8184;60.256;18.694;2023-03-02T06:08:41;1.60;99.90
16158;DHT22;8184;60.256;18.694;2023-03-02T06:11:09;1.60;99.90
16158;DHT22;8184;60.256;18.694;2023-03-02T06:13:38;1.60;99.90
16158;DHT22;8184;60.256;18.694;2023-03-02T06:16:06;1.50;99.90
16158;DHT22;8184;60.256;18.694;2023-03-02T06:18:35;1.60;99.90
16158;DHT22;8184;60.256;18.694;2023-03-02T06:21:08;1.60;99.90
16158;DHT22;8184;60.256;18.694;2023-03-02T06:23:37;1.60;99.90
16158;DHT22;8184;60.256;18.694;2023-03-02T06:26:08;1.60;99.90
16158;DHT22;8184;60.256;18.694;2023-03-02T06:28:36;1.60;99.90
16158;DHT22;8184;60.256;18.694;2023-03-02T06:31:18;1.60;99.90
16158;DHT22;8184;60.256;18.694;2023-03-02T06:33:46;1.70;99.90
16158;DHT22;8184;60.256;18.694;2023-03-02T06:36:16;1.60;99.90
16158;DHT22;8184;60.256;18.694;2023-03-02T06:38:44;1.70;99.90
16158;DHT22;8184;60.256;18.694;2023-03-02T06:41:13;1.70;99.90
16158;DHT22;8184;60.256;18.694;2023-03-02T06:43:41;1.80;99.90
16158;DHT22;8184;60.256;18.694;2023-03-02T06:46:10;1.80;99.90
16158;DHT22;8184;60.256;18.694;2023-03-02T06:48:38;1.80;99.90
16158;DHT22;8184;60.256;18.694;2023-03-02T06:51:06;1.90;99.90
16158;DHT22;8184;60.256;18.694;2023-03-02T06:53:36;1.90;99.90
16158;DHT22;8184;60.256;18.694;2023-03-02T06:56:05;1.90;99.90
16158;DHT22;8184;60.256;18.694;2023-03-02T06:58:33;1.90;99.90
16158;DHT22;8184;60.256;18.694;2023-03-02T07:01:03;1.90;99.90
16158;DHT22;8184;60.256;18.694;2023-03-02T07:03:33;1.90;99.90
16158;DHT22;8184;60.256;18.694;2023-03-02T07:06:02;1.90;99.90
16158;DHT22;8184;60.256;18.694;2023-03-02T07:08:31;1.90;99.90
16158;DHT22;8184;60.256;18.694;2023-03-02T07:11:04;2.00;99.90
16158;DHT22;8184;60.256;18.694;2023-03-02T07:13:33;2.10;99.90
16158;DHT22;8184;60.256;18.694;2023-03-02T07:16:04;2.10;99.90
16158;DHT22;8184;60.256;18.694;2023-03-02T07:18:32;2.30;99.90
16158;DHT22;8184;60.256;18.694;2023-03-02T07:21:01;2.30;99.90
16158;DHT22;8184;60.256;18.694;2023-03-02T07:23:32;2.30;99.90
16158;DHT22;8184;60.256;18.694;2023-03-02T07:26:00;2.30;99.90
16158;DHT22;8184;60.256;18.694;2023-03-02T07:28:30;2.30;99.90
16158;DHT22;8184;60.256;18.694;2023-03-02T07:30:58;2.40;99.90
16158;DHT22;8184;60.256;18.694;2023-03-02T07:33:26;2.40;99.90
16158;DHT22;8184;60.256;18.694;2023-03-02T07:35:54;2.40;99.90
16158;DHT22;8184;60.256;18.694;2023-03-02T07:38:23;2.40;99.90
16158;DHT22;8184;60.256;18.694;2023-03-02T07:40:51;2.50;99.90
16158;DHT22;8184;60.256;18.694;2023-03-02T07:43:20;2.50;99.90
16158;DHT22;8184;60.256;18.694;2023-03-02T07:45:51;2.70;99.90
16158;DHT22;8184;60.256;18.694;2023-03-02T07:48:19;2.80;99.90
16158;DHT22;8184;60.256;18.694;2023-03-02T07:50:49;2.90;99.90
16158;DHT22;8184;60.256;18.694;2023-03-02T07:53:17;2.90;99.90
16158;DHT22;8184;60.256;18.694;2023-03-02T07:55:45;3.00;99.90
16158;DHT22;8184;60.256;18.694;2023-03-02T07:58:13;3.00;99.90
16158;DHT22;8184;60.256;18.694;2023-03-02T08:00:42;3.10;99.90
16158;DHT22;8184;60.256;18.694;2023-03-02T08:03:11;3.10;99.90
16158;DHT22;8184;60.256;18.694;2023-03-02T08:05:39;3.10;99.90
16158;DHT22;8184;60.256;18.694;2023-03-02T08:08:08;3.20;99.90
16158;DHT22;8184;60.256;18.694;2023-03-02T08:10:36;3.30;99.90
16158;DHT22;8184;60.256;18.694;2023-03-02T08:13:04;3.30;99.90
16158;DHT22;8184;60.256;18.694;2023-03-02T08:15:32;3.30;99.90
16158;DHT22;8184;60.256;18.694;2023-03-02T08:18:01;3.30;99.90
16158;DHT22;8184;60.256;18.694;2023-03-02T08:20:31;3.40;99.90
16158;DHT22;8184;60.256;18.694;2023-03-02T08:22:59;3.40;99.90
16158;DHT22;8184;60.256;18.694;2023-03-02T08:25:27;3.30;99.90
16158;DHT22;8184;60.256;18.694;2023-03-02T08:27:55;3.30;99.90
16158;DHT22;8184;60.256;18.694;2023-03-02T08:30:24;3.30;99.90
16158;DHT22;8184;60.256;18.694;2023-03-02T08:32:52;3.30;99.90
16158;DHT22;8184;60.256;18.694;2023-03-02T08:35:20;3.30;99.90
16158;DHT22;8184;60.256;18.694;2023-03-02T08:37:50;3.30;99.90
16158;DHT22;8184;60.256;18.694;2023-03-02T08:40:18;3.40;99.90
16158;DHT22;8184;60.256;18.694;2023-03-02T08:42:47;3.40;99.90
16158;DHT22;8184;60.256;18.694;2023-03-02T08:45:15;3.40;99.90
16158;DHT22;8184;60.256;18.694;2023-03-02T08:47:46;3.50;99.90
16158;DHT22;8184;60.256;18.694;2023-03-02T08:50:15;3.40;99.90
16158;DHT22;8184;60.256;18.694;2023-03-02T08:52:43;3.50;99.90
16158;DHT22;8184;60.256;18.694;2023-03-02T08:55:13;3.50;99.90
16158;DHT22;8184;60.256;18.694;2023-03-02T08:57:44;3.50;99.90
16158;DHT22;8184;60.256;18.694;2023-03-02T09:00:13;3.50;99.90
16158;DHT22;8184;60.256;18.694;2023-03-02T09:02:42;3.50;99.90
16158;DHT22;8184;60.256;18.694;2023-03-02T09:05:10;3.50;99.90
16158;DHT22;8184;60.256;18.694;2023-03-02T09:07:38;3.50;99.90
16158;DHT22;8184;60.256;18.694;2023-03-02T09:10:07;3.60;99.90
16158;DHT22;8184;60.256;18.694;2023-03-02T09:12:36;3.70;99.90
16158;DHT22;8184;60.256;18.694;2023-03-02T09:15:05;3.70;99.90
16158;DHT22;8184;60.256;18.694;2023-03-02T09:17:33;3.70;99.90
16158;DHT22;8184;60.256;18.694;2023-03-02T09:20:02;3.80;99.90
16158;DHT22;8184;60.256;18.694;2023-03-02T09:22:30;3.80;99.90
16158;DHT22;8184;60.256;18.694;2023-03-02T09:25:01;3.90;99.90
16158;DHT22;8184;60.256;18.694;2023-03-02T09:27:29;3.90;99.90
16158;DHT22;8184;60.256;18.694;2023-03-02T09:29:59;4.00;99.90
16158;DHT22;8184;60.256;18.694;2023-03-02T09:32:27;3.90;99.90
16158;DHT22;8184;60.256;18.694;2023-03-02T09:34:56;3.90;99.90
16158;DHT22;8184;60.256;18.694;2023-03-02T09:37:24;4.00;99.90
16158;DHT22;8184;60.256;18.694;2023-03-02T09:39:54;4.00;99.90
16158;DHT22;8184;60.256;18.694;2023-03-02T09:42:28;4.00;99.90
16158;DHT22;8184;60.256;18.694;2023-03-02T09:45:22;3.90;99.90
16158;DHT22;8184;60.256;18.694;2023-03-02T09:47:54;3.90;99.90
16158;DHT22;8184;60.256;18.694;2023-03-02T09:50:29;3.90;99.90
16158;DHT22;8184;60.256;18.694;2023-03-02T09:53:05;4.00;99.90
16158;DHT22;8184;60.256;18.694;2023-03-02T09:55:35;4.00;99.90
16158;DHT22;8184;60.256;18.694;2023-03-02T09:58:04;4.00;99.90
16158;DHT22;8184;60.256;18.694;2023-03-02T10:00:35;4.00;99.90
16158;DHT22;8184;60.256;18.694;2023-03-02T10:03:04;4.10;99.90
16158;DHT22;8184;60.256;18.694;2023-03-02T10:05:43;4.10;99.90
16158;DHT22;8184;60.256;18.694;2023-03-02T10:08:15;4.10;99.90
16158;DHT22;8184;60.256;18.694;2023-03-02T10:10:48;4.10;99.90
16158;DHT22;8184;60.256;18.694;2023-03-02T10:13:21;4.20;99.90
16158;DHT22;8184;60.256;18.694;2023-03-02T10:15:54;4.20;99.90
16158;DHT22;8184;60.256;18.694;2023-03-02T10:18:27;4.10;99.90
16158;DHT22;8184;60.256;18.694;2023-03-02T10:20:58;4.20;99.90
16158;DHT22;8184;60.256;18.694;2023-03-02T10:23:30;4.20;99.90
16158;DHT22;8184;60.256;18.694;2023-03-02T10:26:03;4.20;99.90
16158;DHT22;8184;60.256;18.694;2023-03-02T10:28:34;4.30;99.90
16158;DHT22;8184;60.256;18.694;2023-03-02T10:31:08;4.20;99.90
16158;DHT22;8184;60.256;18.694;2023-03-02T10:33:37;4.30;99.90
16158;DHT22;8184;60.256;18.694;2023-03-02T10:36:11;4.30;99.90
16158;DHT22;8184;60.256;18.694;2023-03-02T10:38:43;4.30;99.90
16158;DHT22;8184;60.256;18.694;2023-03-02T10:41:13;4.30;99.90
16158;DHT22;8184;60.256;18.694;2023-03-02T10:43:44;4.30;99.90
16158;DHT22;8184;60.256;18.694;2023-03-02T10:46:14;4.20;99.90
16158;DHT22;8184;60.256;18.694;2023-03-02T10:48:46;4.30;99.90
16158;DHT22;8184;60.256;18.694;2023-03-02T10:51:22;4.30;99.90
16158;DHT22;8184;60.256;18.694;2023-03-02T10:54:01;4.40;99.90
16158;DHT22;8184;60.256;18.694;2023-03-02T10:56:29;4.40;99.90
16158;DHT22;8184;60.256;18.694;2023-03-02T10:58:58;4.40;99.90
16158;DHT22;8184;60.256;18.694;2023-03-02T11:01:30;4.40;99.90
16158;DHT22;8184;60.256;18.694;2023-03-02T11:03:59;4.40;99.90
16158;DHT22;8184;60.256;18.694;2023-03-02T11:06:29;4.40;99.90
16158;DHT22;8184;60.256;18.694;2023-03-02T11:08:58;4.40;99.90
16158;DHT22;8184;60.256;18.694;2023-03-02T11:11:27;4.40;99.90
16158;DHT22;8184;60.256;18.694;2023-03-02T11:14:06;4.40;99.90
16158;DHT22;8184;60.256;18.694;2023-03-02T11:16:36;4.50;99.90
16158;DHT22;8184;60.256;18.694;2023-03-02T11:19:05;4.50;99.90
16158;DHT22;8184;60.256;18.694;2023-03-02T11:21:36;4.50;99.90
16158;DHT22;8184;60.256;18.694;2023-03-02T11:24:07;4.60;99.90
16158;DHT22;8184;60.256;18.694;2023-03-02T11:26:37;4.60;99.90
16158;DHT22;8184;60.256;18.694;2023-03-02T11:29:09;4.60;99.90
16158;DHT22;8184;60.256;18.694;2023-03-02T11:31:40;4.60;99.90
16158;DHT22;8184;60.256;18.694;2023-03-02T11:34:20;4.70;99.90
16158;DHT22;8184;60.256;18.694;2023-03-02T11:36:53;4.70;99.90
16158;DHT22;8184;60.256;18.694;2023-03-02T11:39:24;4.70;99.90
16158;DHT22;8184;60.256;18.694;2023-03-02T11:41:55;4.70;99.90
16158;DHT22;8184;60.256;18.694;2023-03-02T11:44:23;4.70;99.90
16158;DHT22;8184;60.256;18.694;2023-03-02T11:46:55;4.70;99.90
16158;DHT22;8184;60.256;18.694;2023-03-02T11:49:35;4.80;99.90
16158;DHT22;8184;60.256;18.694;2023-03-02T11:52:04;4.70;99.90
16158;DHT22;8184;60.256;18.694;2023-03-02T11:54:38;4.80;99.90
16158;DHT22;8184;60.256;18.694;2023-03-02T11:57:09;4.90;99.90
16158;DHT22;8184;60.256;18.694;2023-03-02T11:59:45;4.80;99.90
16158;DHT22;8184;60.256;18.694;2023-03-02T12:02:14;5.00;99.90
16158;DHT22;8184;60.256;18.694;2023-03-02T12:04:43;4.90;99.90
16158;DHT22;8184;60.256;18.694;2023-03-02T12:07:19;5.10;99.90
16158;DHT22;8184;60.256;18.694;2023-03-02T12:09:57;5.10;99.90
16158;DHT22;8184;60.256;18.694;2023-03-02T12:12:32;5.00;99.90
16158;DHT22;8184;60.256;18.694;2023-03-02T12:15:00;5.00;99.90
16158;DHT22;8184;60.256;18.694;2023-03-02T12:17:31;5.00;99.90
16158;DHT22;8184;60.256;18.694;2023-03-02T12:20:08;5.10;99.90
16158;DHT22;8184;60.256;18.694;2023-03-02T12:22:39;5.10;99.90
16158;DHT22;8184;60.256;18.694;2023-03-02T12:25:23;5.20;99.90
16158;DHT22;8184;60.256;18.694;2023-03-02T12:27:52;5.30;99.90
16158;DHT22;8184;60.256;18.694;2023-03-02T12:30:23;5.30;99.90
16158;DHT22;8184;60.256;18.694;2023-03-02T12:33:01;5.20;99.90
16158;DHT22;8184;60.256;18.694;2023-03-02T12:35:30;5.20;99.90
16158;DHT22;8184;60.256;18.694;2023-03-02T12:37:59;5.30;99.90
16158;DHT22;8184;60.256;18.694;2023-03-02T12:40:30;5.30;99.90
16158;DHT22;8184;60.256;18.694;2023-03-02T12:43:06;5.40;99.90
16158;DHT22;8184;60.256;18.694;2023-03-02T12:45:40;5.40;99.90
16158;DHT22;8184;60.256;18.694;2023-03-02T12:48:18;5.40;99.90
16158;DHT22;8184;60.256;18.694;2023-03-02T12:50:49;5.50;99.90
16158;DHT22;8184;60.256;18.694;2023-03-02T12:53:19;5.60;99.90
16158;DHT22;8184;60.256;18.694;2023-03-02T12:55:47;5.50;99.90
16158;DHT22;8184;60.256;18.694;2023-03-02T12:58:16;5.60;99.90
16158;DHT22;8184;60.256;18.694;2023-03-02T13:00:48;5.50;99.90
16158;DHT22;8184;60.256;18.694;2023-03-02T13:03:18;5.70;99.90
16158;DHT22;8184;60.256;18.694;2023-03-02T13:05:46;5.70;99.90
16158;DHT22;8184;60.256;18.694;2023-03-02T13:08:17;5.80;99.90
16158;DHT22;8184;60.256;18.694;2023-03-02T13:10:50;5.90;99.90
16158;DHT22;8184;60.256;18.694;2023-03-02T13:13:19;5.90;99.90
16158;DHT22;8184;60.256;18.694;2023-03-02T13:15:49;5.90;99.90
16158;DHT22;8184;60.256;18.694;2023-03-02T13:18:19;5.80;99.90
16158;DHT22;8184;60.256;18.694;2023-03-02T13:20:50;5.80;99.90
16158;DHT22;8184;60.256;18.694;2023-03-02T13:23:19;5.80;99.90
16158;DHT22;8184;60.256;18.694;2023-03-02T13:25:48;5.80;99.90
16158;DHT22;8184;60.256;18.694;2023-03-02T13:28:26;5.80;99.90
16158;DHT22;8184;60.256;18.694;2023-03-02T13:30:55;5.80;99.90
16158;DHT22;8184;60.256;18.694;2023-03-02T13:33:25;5.70;99.90
16158;DHT22;8184;60.256;18.694;2023-03-02T13:35:55;5.80;99.90
16158;DHT22;8184;60.256;18.694;2023-03-02T13:38:24;5.80;99.90
16158;DHT22;8184;60.256;18.694;2023-03-02T13:40:54;5.90;99.90
16158;DHT22;8184;60.256;18.694;2023-03-02T13:43:26;5.90;99.90
16158;DHT22;8184;60.256;18.694;2023-03-02T13:45:57;5.90;99.90
16158;DHT22;8184;60.256;18.694;2023-03-02T13:48:29;5.90;99.90
16158;DHT22;8184;60.256;18.694;2023-03-02T13:50:58;6.00;99.90
16158;DHT22;8184;60.256;18.694;2023-03-02T13:53:27;6.00;99.90
16158;DHT22;8184;60.256;18.694;2023-03-02T13:55:57;6.00;99.90
16158;DHT22;8184;60.256;18.694;2023-03-02T13:58:26;6.00;99.90
16158;DHT22;8184;60.256;18.694;2023-03-02T14:00:55;6.00;99.90
16158;DHT22;8184;60.256;18.694;2023-03-02T14:03:24;6.00;99.90
16158;DHT22;8184;60.256;18.694;2023-03-02T14:05:55;6.20;99.90
16158;DHT22;8184;60.256;18.694;2023-03-02T14:08:23;6.00;99.90
16158;DHT22;8184;60.256;18.694;2023-03-02T14:10:52;6.00;99.90
16158;DHT22;8184;60.256;18.694;2023-03-02T14:13:23;6.00;99.90
16158;DHT22;8184;60.256;18.694;2023-03-02T14:15:52;6.10;99.90
16158;DHT22;8184;60.256;18.694;2023-03-02T14:18:25;6.00;99.90
16158;DHT22;8184;60.256;18.694;2023-03-02T14:20:55;6.00;99.90
16158;DHT22;8184;60.256;18.694;2023-03-02T14:23:24;5.90;99.90
16158;DHT22;8184;60.256;18.694;2023-03-02T14:25:53;5.80;99.90
16158;DHT22;8184;60.256;18.694;2023-03-02T14:28:23;5.90;99.90
16158;DHT22;8184;60.256;18.694;2023-03-02T14:30:53;5.80;99.90
16158;DHT22;8184;60.256;18.694;2023-03-02T14:33:21;5.80;99.90
16158;DHT22;8184;60.256;18.694;2023-03-02T14:35:51;5.90;99.90
16158;DHT22;8184;60.256;18.694;2023-03-02T14:38:21;5.80;99.90
16158;DHT22;8184;60.256;18.694;2023-03-02T14:40:50;5.80;99.90
16158;DHT22;8184;60.256;18.694;2023-03-02T14:43:18;5.80;99.90
16158;DHT22;8184;60.256;18.694;2023-03-02T14:45:50;5.90;99.90
16158;DHT22;8184;60.256;18.694;2023-03-02T14:48:19;5.80;99.90
16158;DHT22;8184;60.256;18.694;2023-03-02T14:50:47;5.80;99.90
16158;DHT22;8184;60.256;18.694;2023-03-02T14:53:16;5.90;99.90
16158;DHT22;8184;60.256;18.694;2023-03-02T14:55:49;5.90;99.90
16158;DHT22;8184;60.256;18.694;2023-03-02T14:58:18;5.80;99.90
16158;DHT22;8184;60.256;18.694;2023-03-02T15:00:47;5.80;99.90
16158;DHT22;8184;60.256;18.694;2023-03-02T15:03:15;5.80;99.90
16158;DHT22;8184;60.256;18.694;2023-03-02T15:05:45;5.70;99.90
16158;DHT22;8184;60.256;18.694;2023-03-02T15:08:26;5.70;99.90
16158;DHT22;8184;60.256;18.694;2023-03-02T15:10:56;5.60;99.90
16158;DHT22;8184;60.256;18.694;2023-03-02T15:13:24;5.60;99.90
16158;DHT22;8184;60.256;18.694;2023-03-02T15:15:58;5.70;99.90
16158;DHT22;8184;60.256;18.694;2023-03-02T15:18:26;5.70;99.90
16158;DHT22;8184;60.256;18.694;2023-03-02T15:20:54;5.60;99.90
16158;DHT22;8184;60.256;18.694;2023-03-02T15:23:22;5.60;99.90
16158;DHT22;8184;60.256;18.694;2023-03-02T15:25:51;5.60;99.90
16158;DHT22;8184;60.256;18.694;2023-03-02T15:28:20;5.70;99.90
16158;DHT22;8184;60.256;18.694;2023-03-02T15:30:48;5.70;99.90
16158;DHT22;8184;60.256;18.694;2023-03-02T15:33:17;5.60;99.90
16158;DHT22;8184;60.256;18.694;2023-03-02T15:35:45;5.60;99.90
16158;DHT22;8184;60.256;18.694;2023-03-02T15:38:20;5.60;99.90
16158;DHT22;8184;60.256;18.694;2023-03-02T15:40:49;5.80;99.90
16158;DHT22;8184;60.256;18.694;2023-03-02T15:43:17;5.70;99.90
16158;DHT22;8184;60.256;18.694;2023-03-02T15:45:47;5.80;99.90
16158;DHT22;8184;60.256;18.694;2023-03-02T15:48:17;5.80;99.90
16158;DHT22;8184;60.256;18.694;2023-03-02T15:50:53;5.70;99.90
16158;DHT22;8184;60.256;18.694;2023-03-02T15:53:22;5.90;99.90
16158;DHT22;8184;60.256;18.694;2023-03-02T15:55:50;5.90;99.90
16158;DHT22;8184;60.256;18.694;2023-03-02T15:58:18;5.80;99.90
16158;DHT22;8184;60.256;18.694;2023-03-02T16:00:51;5.90;99.90
16158;DHT22;8184;60.256;18.694;2023-03-02T16:03:21;5.90;99.90